createdAt,value
2022-10-18T00:00:56.813Z,101634.80
2022-10-18T00:03:38.019Z,101634.80
2022-10-18T00:06:09.292Z,101628.00
2022-10-18T00:08:39.223Z,101620.40
2022-10-18T00:11:08.242Z,101627.40
2022-10-18T00:13:36.936Z,101623.20
2022-10-18T00:16:13.591Z,101628.60
2022-10-18T00:18:42.854Z,101628.60
2022-10-18T00:21:15.588Z,101630.40
2022-10-18T00:23:45.498Z,101638.00
2022-10-18T00:26:14.447Z,101645.40
2022-10-18T00:28:43.458Z,101651.00
2022-10-18T00:31:17.478Z,101647.60
2022-10-18T00:33:50.875Z,101652.60
2022-10-18T00:36:19.469Z,101650.00
2022-10-18T00:38:48.948Z,101654.20
2022-10-18T00:41:25.072Z,101657.80
2022-10-18T00:44:03.779Z,101654.40
2022-10-18T00:46:38.082Z,101654.80
2022-10-18T00:49:16.902Z,101662.60
2022-10-18T00:52:03.603Z,101664.00
2022-10-18T00:54:37.013Z,101664.60
2022-10-18T00:57:06.424Z,101668.40
2022-10-18T00:59:36.294Z,101670.60
2022-10-18T01:02:05.754Z,101673.40
2022-10-18T01:04:34.730Z,101678.20
2022-10-18T01:07:33.928Z,101678.00
2022-10-18T01:10:18.730Z,101687.00
2022-10-18T01:13:04.839Z,101695.80
2022-10-18T01:16:19.127Z,101698.80
2022-10-18T01:19:06.288Z,101693.40
2022-10-18T01:22:02.515Z,101692.00
2022-10-18T01:24:39.193Z,101696.00
2022-10-18T01:27:32.534Z,101696.60
2022-10-18T01:30:39.202Z,101704.80
2022-10-18T01:33:26.808Z,101712.20
2022-10-18T01:36:42.749Z,101721.20
2022-10-18T01:39:36.468Z,101715.80
2022-10-18T01:42:09.951Z,101717.20
2022-10-18T01:44:41.221Z,101715.40
2022-10-18T01:47:13.404Z,101711.80
2022-10-18T01:49:41.408Z,101708.20
2022-10-18T01:52:14.313Z,101703.80
2022-10-18T01:54:51.248Z,101707.00
2022-10-18T01:57:46.377Z,101706.80
2022-10-18T02:00:37.075Z,101706.20
2022-10-18T02:03:21.337Z,101703.40
2022-10-18T02:06:02.491Z,101705.60
2022-10-18T02:08:51.040Z,101703.20
2022-10-18T02:11:19.177Z,101700.00
2022-10-18T02:14:06.202Z,101698.60
2022-10-18T02:16:52.170Z,101710.60
2022-10-18T02:19:30.946Z,101709.40
2022-10-18T02:22:00.136Z,101718.20
2022-10-18T02:24:37.904Z,101719.20
2022-10-18T02:27:06.260Z,101714.80
2022-10-18T02:29:35.105Z,101717.80
2022-10-18T02:32:19.750Z,101717.60
2022-10-18T02:35:52.489Z,101712.40
2022-10-18T02:38:23.880Z,101715.20
2022-10-18T02:40:52.212Z,101722.20
2022-10-18T02:43:20.058Z,101723.40
2022-10-18T02:45:47.943Z,101727.40
2022-10-18T02:48:15.855Z,101722.40
2022-10-18T02:50:43.689Z,101729.00
2022-10-18T02:53:11.512Z,101732.60
2022-10-18T02:55:39.329Z,101735.60
2022-10-18T02:58:07.184Z,101731.40
2022-10-18T03:00:35.000Z,101735.60
2022-10-18T03:03:02.882Z,101724.80
2022-10-18T03:05:30.719Z,101725.60
2022-10-18T03:07:58.541Z,101723.60
2022-10-18T03:10:26.405Z,101722.20
2022-10-18T03:12:54.583Z,101727.00
2022-10-18T03:15:22.412Z,101724.80
2022-10-18T03:17:50.260Z,101732.60
2022-10-18T03:20:18.135Z,101728.80
2022-10-18T03:22:45.930Z,101732.00
2022-10-18T03:25:13.922Z,101734.80
2022-10-18T03:27:41.802Z,101735.80
2022-10-18T03:30:11.808Z,101735.20
2022-10-18T03:32:41.023Z,101732.80
2022-10-18T03:35:09.695Z,101738.80
2022-10-18T03:37:38.515Z,101739.80
2022-10-18T03:40:07.671Z,101745.20
2022-10-18T03:42:35.558Z,101747.20
2022-10-18T03:45:04.487Z,101748.40
2022-10-18T03:47:32.295Z,101751.60
2022-10-18T03:50:00.165Z,101751.20
2022-10-18T03:52:28.274Z,101754.40
2022-10-18T03:54:56.189Z,101758.20
2022-10-18T03:57:24.049Z,101756.40
2022-10-18T03:59:51.906Z,101760.80
2022-10-18T04:02:19.725Z,101762.20
2022-10-18T04:04:47.575Z,101763.00
2022-10-18T04:07:15.945Z,101760.80
2022-10-18T04:09:43.942Z,101757.80
2022-10-18T04:12:11.833Z,101754.80
2022-10-18T04:14:39.676Z,101756.40
2022-10-18T04:17:07.700Z,101756.60
2022-10-18T04:19:35.663Z,101758.40
2022-10-18T04:22:03.640Z,101757.60
2022-10-18T04:24:31.458Z,101754.20
2022-10-18T04:26:59.356Z,101759.00
2022-10-18T04:29:27.169Z,101758.60
2022-10-18T04:31:54.998Z,101766.80
2022-10-18T04:34:23.205Z,101764.20
2022-10-18T04:36:51.099Z,101763.40
2022-10-18T04:39:18.943Z,101760.60
2022-10-18T04:41:46.741Z,101757.80
2022-10-18T04:44:14.586Z,101753.80
2022-10-18T04:46:42.427Z,101759.20
2022-10-18T04:49:10.276Z,101762.80
2022-10-18T04:51:38.202Z,101756.40
2022-10-18T04:54:06.751Z,101758.80
2022-10-18T04:56:34.935Z,101757.20
2022-10-18T04:59:02.778Z,101759.00
2022-10-18T05:01:30.677Z,101768.00
2022-10-18T05:03:58.537Z,101776.00
2022-10-18T05:06:26.343Z,101778.00
2022-10-18T05:08:54.157Z,101778.60
2022-10-18T05:11:21.989Z,101782.40
2022-10-18T05:13:50.939Z,101783.80
2022-10-18T05:16:19.061Z,101786.80
2022-10-18T05:18:46.917Z,101794.60
2022-10-18T05:21:14.872Z,101796.80
2022-10-18T05:23:42.714Z,101795.80
2022-10-18T05:26:10.612Z,101795.60
2022-10-18T05:28:40.207Z,101797.00
2022-10-18T05:31:11.868Z,101797.80
2022-10-18T05:33:40.352Z,101803.20
2022-10-18T05:36:08.815Z,101803.60
2022-10-18T05:38:45.398Z,101803.00
2022-10-18T05:41:14.033Z,101807.60
2022-10-18T05:43:41.887Z,101809.20
2022-10-18T05:46:15.084Z,101806.80
2022-10-18T05:48:49.131Z,101807.00
2022-10-18T05:51:18.765Z,101814.60
2022-10-18T05:53:46.719Z,101813.60
2022-10-18T05:56:14.958Z,101811.40
2022-10-18T05:58:43.370Z,101809.20
2022-10-18T06:01:11.289Z,101812.40
2022-10-18T06:03:39.248Z,101820.20
2022-10-18T06:06:10.700Z,101821.20
2022-10-18T06:08:40.910Z,101814.60
2022-10-18T06:11:15.727Z,101812.80
2022-10-18T06:13:49.783Z,101813.00
2022-10-18T06:16:21.899Z,101816.40
2022-10-18T06:18:52.803Z,101820.80
2022-10-18T06:21:22.333Z,101818.40
2022-10-18T06:23:56.263Z,101812.40
2022-10-18T06:26:25.969Z,101817.40
2022-10-18T06:28:53.898Z,101820.00
2022-10-18T06:31:21.904Z,101818.20
2022-10-18T06:33:49.996Z,101809.00
2022-10-18T06:36:24.051Z,101811.20
2022-10-18T06:38:52.629Z,101820.60
2022-10-18T06:41:20.791Z,101813.20
2022-10-18T06:43:57.566Z,101819.00
2022-10-18T06:46:26.072Z,101824.20
2022-10-18T06:48:54.130Z,101829.80
2022-10-18T06:51:21.986Z,101827.00
2022-10-18T06:53:59.637Z,101829.80
2022-10-18T06:56:38.273Z,101832.80
2022-10-18T06:59:06.319Z,101831.00
2022-10-18T07:01:34.759Z,101833.20
2022-10-18T07:04:02.839Z,101835.40
2022-10-18T07:06:30.773Z,101837.40
2022-10-18T07:08:58.689Z,101840.80
2022-10-18T07:11:27.412Z,101836.40
2022-10-18T07:14:04.969Z,101841.60
2022-10-18T07:16:34.060Z,101848.60
2022-10-18T07:19:02.216Z,101853.80
2022-10-18T07:21:30.569Z,101852.60
2022-10-18T07:23:58.565Z,101852.60
2022-10-18T07:26:30.768Z,101856.00
2022-10-18T07:29:09.116Z,101853.60
2022-10-18T07:31:38.824Z,101862.20
2022-10-18T07:34:10.819Z,101865.60
2022-10-18T07:36:39.162Z,101871.80
2022-10-18T07:39:07.788Z,101875.40
2022-10-18T07:41:36.262Z,101873.60
2022-10-18T07:44:04.929Z,101875.00
2022-10-18T07:46:32.877Z,101884.00
2022-10-18T07:49:00.867Z,101887.80
2022-10-18T07:51:30.954Z,101895.20
2022-10-18T07:53:59.663Z,101895.60
2022-10-18T07:56:27.949Z,101885.20
2022-10-18T07:58:57.018Z,101888.40
2022-10-18T08:01:26.018Z,101890.40
2022-10-18T08:03:54.390Z,101900.80
2022-10-18T08:06:23.594Z,101903.80
2022-10-18T08:08:52.420Z,101900.80
2022-10-18T08:11:25.027Z,101907.60
2022-10-18T08:13:54.277Z,101910.00
2022-10-18T08:16:28.233Z,101915.40
2022-10-18T08:18:58.589Z,101918.20
2022-10-18T08:21:26.984Z,101914.00
2022-10-18T08:23:55.337Z,101914.60
2022-10-18T08:26:23.628Z,101926.00
2022-10-18T08:29:10.320Z,101919.80
2022-10-18T08:31:39.708Z,101925.60
2022-10-18T08:34:07.669Z,101924.40
2022-10-18T08:36:35.565Z,101934.40
2022-10-18T08:39:04.040Z,101934.00
2022-10-18T08:41:37.702Z,101934.40
2022-10-18T08:44:24.597Z,101938.00
2022-10-18T08:47:02.919Z,101939.40
2022-10-18T08:49:47.094Z,101945.20
2022-10-18T08:52:57.875Z,101942.00
2022-10-18T08:55:37.325Z,101951.60
2022-10-18T08:58:22.741Z,101949.40
2022-10-18T09:00:53.449Z,101953.80
2022-10-18T09:03:43.013Z,101953.80
2022-10-18T09:06:28.288Z,101953.60
2022-10-18T09:09:11.414Z,101956.40
2022-10-18T09:11:47.388Z,101956.60
2022-10-18T09:14:45.711Z,101952.00
2022-10-18T09:17:28.762Z,101947.80
2022-10-18T09:20:25.841Z,101949.00
2022-10-18T09:23:19.815Z,101946.00
2022-10-18T09:25:55.208Z,101950.80
2022-10-18T09:28:57.555Z,101952.00
2022-10-18T09:31:51.523Z,101951.60
2022-10-18T09:34:23.489Z,101952.00
2022-10-18T09:36:52.704Z,101960.60
2022-10-18T09:39:31.010Z,101955.60
2022-10-18T09:42:26.938Z,101950.80
2022-10-18T09:45:04.507Z,101959.60
2022-10-18T09:47:44.711Z,101963.80
2022-10-18T09:50:27.626Z,101963.60
2022-10-18T09:53:26.431Z,101961.80
2022-10-18T09:56:02.409Z,101965.20
2022-10-18T09:58:46.462Z,101966.60
2022-10-18T10:01:28.608Z,101963.80
2022-10-18T10:03:57.081Z,101966.20
2022-10-18T10:06:38.703Z,101967.80
2022-10-18T10:09:14.720Z,101966.00
2022-10-18T10:11:51.520Z,101962.20
2022-10-18T10:14:26.714Z,101963.60
2022-10-18T10:17:02.579Z,101964.80
2022-10-18T10:19:57.056Z,101969.20
2022-10-18T10:22:42.351Z,101962.40
2022-10-18T10:25:25.943Z,101959.80
2022-10-18T10:27:54.172Z,101961.00
2022-10-18T10:30:31.807Z,101959.20
2022-10-18T10:32:59.844Z,101963.20
2022-10-18T10:35:54.017Z,101960.60
2022-10-18T10:38:28.576Z,101954.20
2022-10-18T10:40:57.630Z,101950.20
2022-10-18T10:43:38.757Z,101950.40
2022-10-18T10:46:10.999Z,101952.00
2022-10-18T10:48:48.439Z,101945.00
2022-10-18T10:51:37.252Z,101945.20
2022-10-18T10:54:17.130Z,101946.20
2022-10-18T10:57:11.326Z,101950.20
2022-10-18T10:59:52.429Z,101949.80
2022-10-18T11:02:29.436Z,101947.20
2022-10-18T11:05:29.564Z,101949.00
2022-10-18T11:08:02.921Z,101950.80
2022-10-18T11:10:38.359Z,101951.40
2022-10-18T11:13:35.719Z,101957.60
2022-10-18T11:16:17.479Z,101952.60
2022-10-18T11:18:49.740Z,101947.00
2022-10-18T11:21:27.490Z,101942.00
2022-10-18T11:23:57.346Z,101941.20
2022-10-18T11:26:48.819Z,101940.80
2022-10-18T11:29:40.440Z,101942.40
2022-10-18T11:32:19.003Z,101941.00
2022-10-18T11:35:29.650Z,101948.80
2022-10-18T11:38:42.354Z,101954.40
2022-10-18T11:41:28.336Z,101946.00
2022-10-18T11:44:04.464Z,101946.80
2022-10-18T11:47:11.133Z,101942.40
2022-10-18T11:49:57.481Z,101943.20
2022-10-18T11:52:58.708Z,101941.20
2022-10-18T11:55:46.559Z,101938.20
2022-10-18T11:58:42.840Z,101935.00
2022-10-18T12:01:37.231Z,101934.40
2022-10-18T12:04:17.916Z,101933.20
2022-10-18T12:06:50.106Z,101930.60
2022-10-18T12:09:37.831Z,101927.80
2022-10-18T12:12:53.908Z,101928.20
2022-10-18T12:15:25.745Z,101926.20
2022-10-18T12:17:58.847Z,101920.20
2022-10-18T12:20:43.186Z,101915.00
2022-10-18T12:23:29.180Z,101904.00
2022-10-18T12:26:03.937Z,101900.40
2022-10-18T12:29:19.782Z,101901.40
2022-10-18T12:31:52.859Z,101893.80
2022-10-18T12:34:23.855Z,101889.80
2022-10-18T12:37:28.778Z,101880.80
2022-10-18T12:40:16.814Z,101883.40
2022-10-18T12:42:50.530Z,101886.80
2022-10-18T12:45:33.290Z,101887.80
2022-10-18T12:48:06.726Z,101890.00
2022-10-18T12:50:43.837Z,101882.20
2022-10-18T12:53:23.215Z,101875.80
2022-10-18T12:55:53.695Z,101869.00
2022-10-18T12:58:30.854Z,101868.20
2022-10-18T13:01:02.641Z,101868.20
2022-10-18T13:03:55.195Z,101863.60
2022-10-18T13:06:24.225Z,101853.20
2022-10-18T13:09:21.135Z,101852.40
2022-10-18T13:11:50.181Z,101847.80
2022-10-18T13:14:35.534Z,101850.20
2022-10-18T13:17:26.339Z,101848.40
2022-10-18T13:20:25.024Z,101841.40
2022-10-18T13:26:21.651Z,101843.80
2022-10-18T13:28:54.592Z,101840.80
2022-10-18T13:31:34.587Z,101834.60
2022-10-18T13:34:35.476Z,101832.00
2022-10-18T13:37:18.842Z,101828.80
2022-10-18T13:39:47.599Z,101827.40
2022-10-18T13:42:15.324Z,101822.80
2022-10-18T13:44:44.755Z,101821.40
2022-10-18T13:47:31.967Z,101821.60
2022-10-18T13:50:26.713Z,101818.20
2022-10-18T13:53:24.068Z,101823.40
2022-10-18T13:56:06.550Z,101827.00
2022-10-18T13:59:06.079Z,101833.20
2022-10-18T14:02:51.471Z,101836.40
2022-10-18T14:05:29.231Z,101840.40
2022-10-18T14:08:08.077Z,101842.60
2022-10-18T14:11:10.186Z,101840.80
2022-10-18T14:14:02.347Z,101840.00
2022-10-18T14:16:43.482Z,101837.60
2022-10-18T14:19:29.410Z,101829.40
2022-10-18T14:22:22.233Z,101821.00
2022-10-18T14:24:59.607Z,101822.60
2022-10-18T14:27:33.096Z,101820.40
2022-10-18T14:30:15.659Z,101818.40
2022-10-18T14:32:50.692Z,101815.20
2022-10-18T14:35:33.561Z,101809.20
2022-10-18T14:38:02.882Z,101804.60
2022-10-18T14:40:41.333Z,101813.20
2022-10-18T14:43:09.089Z,101815.00
2022-10-18T14:45:36.994Z,101823.00
2022-10-18T14:48:15.083Z,101819.60
2022-10-18T14:50:50.744Z,101825.20
2022-10-18T14:53:25.188Z,101828.80
2022-10-18T14:55:56.518Z,101833.00
2022-10-18T14:58:24.611Z,101833.80
2022-10-18T15:00:54.194Z,101828.80
2022-10-18T15:03:22.713Z,101825.40
2022-10-18T15:05:55.443Z,101820.40
2022-10-18T15:08:26.831Z,101818.20
2022-10-18T15:10:55.307Z,101814.20
2022-10-18T15:13:25.167Z,101819.40
2022-10-18T15:15:55.370Z,101815.20
2022-10-18T15:18:26.937Z,101815.20
2022-10-18T15:21:24.135Z,101817.40
2022-10-18T15:23:52.459Z,101817.00
2022-10-18T15:26:30.430Z,101816.80
2022-10-18T15:29:01.534Z,101815.80
2022-10-18T15:31:37.444Z,101821.80
2022-10-18T15:34:18.601Z,101827.00
2022-10-18T15:36:48.899Z,101828.40
2022-10-18T15:39:32.017Z,101824.20
2022-10-18T15:42:02.519Z,101817.60
2022-10-18T15:44:34.641Z,101820.00
2022-10-18T15:47:20.563Z,101823.00
2022-10-18T15:49:54.578Z,101824.80
2022-10-18T15:52:43.370Z,101824.80
2022-10-18T15:55:29.753Z,101824.00
2022-10-18T15:58:13.148Z,101831.20
2022-10-18T16:00:44.158Z,101834.60
2022-10-18T16:03:12.681Z,101839.00
2022-10-18T16:05:41.298Z,101837.60
2022-10-18T16:08:26.441Z,101827.20
2022-10-18T16:10:54.472Z,101833.80
2022-10-18T16:13:22.375Z,101834.20
2022-10-18T16:15:50.604Z,101832.60
2022-10-18T16:18:20.503Z,101835.40
2022-10-18T16:20:48.844Z,101836.20
2022-10-18T16:23:21.775Z,101836.40
2022-10-18T16:25:50.685Z,101840.40
2022-10-18T16:28:22.782Z,101833.40
2022-10-18T16:31:01.821Z,101827.40
2022-10-18T16:33:30.996Z,101828.00
2022-10-18T16:35:59.539Z,101826.40
2022-10-18T16:38:37.567Z,101829.60
2022-10-18T16:41:08.425Z,101832.60
2022-10-18T16:43:37.121Z,101840.00
2022-10-18T16:46:05.684Z,101834.20
2022-10-18T16:48:34.115Z,101832.60
2022-10-18T16:51:02.488Z,101824.40
2022-10-18T16:53:30.520Z,101826.80
2022-10-18T16:56:02.265Z,101837.40
2022-10-18T16:58:33.037Z,101837.20
2022-10-18T17:01:02.914Z,101836.40
2022-10-18T17:03:33.248Z,101828.00
2022-10-18T17:06:01.214Z,101841.40
2022-10-18T17:08:29.153Z,101849.40
2022-10-18T17:10:59.383Z,101862.60
2022-10-18T17:13:27.393Z,101859.20
2022-10-18T17:15:55.291Z,101861.80
2022-10-18T17:18:30.617Z,101858.00
2022-10-18T17:21:02.596Z,101863.20
2022-10-18T17:23:31.193Z,101862.80
2022-10-18T17:26:07.173Z,101855.80
2022-10-18T17:28:50.894Z,101862.40
2022-10-18T17:31:18.812Z,101875.60
2022-10-18T17:33:47.131Z,101881.40
2022-10-18T17:36:17.556Z,101877.20
2022-10-18T17:38:48.278Z,101875.20
2022-10-18T17:41:16.334Z,101867.80
2022-10-18T17:43:44.591Z,101870.60
2022-10-18T17:46:14.244Z,101867.20
2022-10-18T17:48:42.243Z,101868.40
2022-10-18T17:51:14.427Z,101857.00
2022-10-18T17:53:42.490Z,101854.00
2022-10-18T17:56:12.399Z,101852.40
2022-10-18T17:58:43.247Z,101858.60
2022-10-18T18:01:23.282Z,101853.60
2022-10-18T18:04:01.299Z,101860.00
2022-10-18T18:06:35.602Z,101866.80
2022-10-18T18:09:09.372Z,101870.40
2022-10-18T18:11:43.424Z,101879.40
2022-10-18T18:14:12.318Z,101877.80
2022-10-18T18:16:44.475Z,101871.60
2022-10-18T18:19:13.695Z,101877.60
2022-10-18T18:21:42.942Z,101874.80
2022-10-18T18:24:11.553Z,101870.80
2022-10-18T18:26:41.931Z,101872.20
2022-10-18T18:29:12.936Z,101872.80
2022-10-18T18:31:43.745Z,101874.60
2022-10-18T18:34:12.056Z,101878.00
2022-10-18T18:36:41.321Z,101881.80
2022-10-18T18:39:19.189Z,101885.80
2022-10-18T18:41:50.471Z,101878.80
2022-10-18T18:44:20.551Z,101877.20
2022-10-18T18:46:49.018Z,101885.60
2022-10-18T18:49:16.884Z,101888.00
2022-10-18T18:51:44.813Z,101888.40
2022-10-18T18:54:15.161Z,101891.40
2022-10-18T18:56:43.351Z,101883.00
2022-10-18T18:59:15.706Z,101875.00
2022-10-18T19:01:44.574Z,101867.40
2022-10-18T19:04:12.785Z,101867.80
2022-10-18T19:06:44.368Z,101869.20
2022-10-18T19:09:22.015Z,101865.00
2022-10-18T19:11:53.322Z,101861.00
2022-10-18T19:16:58.912Z,101847.20
2022-10-18T19:19:30.986Z,101847.20
2022-10-18T19:22:03.661Z,101846.20
2022-10-18T19:24:32.125Z,101852.60
2022-10-18T19:27:12.535Z,101853.40
2022-10-18T19:29:41.802Z,101855.60
2022-10-18T19:32:12.295Z,101851.60
2022-10-18T19:34:40.491Z,101851.40
2022-10-18T19:37:11.876Z,101847.20
2022-10-18T19:39:39.876Z,101842.80
2022-10-18T19:42:21.181Z,101845.40
2022-10-18T19:44:54.173Z,101839.60
2022-10-18T19:47:22.106Z,101848.00
2022-10-18T19:49:50.358Z,101850.80
2022-10-18T19:52:18.347Z,101849.60
2022-10-18T19:54:49.486Z,101846.60
2022-10-18T19:57:17.451Z,101843.60
2022-10-18T19:59:46.054Z,101843.60
2022-10-18T20:02:15.266Z,101841.20
2022-10-18T20:04:43.334Z,101838.80
2022-10-18T20:07:11.301Z,101838.40
2022-10-18T20:09:39.904Z,101835.80
2022-10-18T20:12:07.843Z,101838.40
2022-10-18T20:14:35.732Z,101848.80
2022-10-18T20:17:03.913Z,101856.00
2022-10-18T20:19:31.892Z,101853.80
2022-10-18T20:21:59.720Z,101854.40
2022-10-18T20:24:27.634Z,101850.80
2022-10-18T20:26:55.529Z,101849.00
2022-10-18T20:29:25.390Z,101841.40
2022-10-18T20:31:55.952Z,101839.00
2022-10-18T20:34:26.101Z,101850.40
2022-10-18T20:36:55.436Z,101849.20
2022-10-18T20:39:23.541Z,101843.40
2022-10-18T20:41:51.458Z,101844.00
2022-10-18T20:44:22.707Z,101845.20
2022-10-18T20:46:51.109Z,101853.80
2022-10-18T20:49:19.429Z,101854.80
2022-10-18T20:51:47.359Z,101857.60
2022-10-18T20:54:15.313Z,101862.00
2022-10-18T20:56:43.213Z,101859.00
2022-10-18T20:59:11.641Z,101850.80
2022-10-18T21:01:39.827Z,101845.60
2022-10-18T21:04:10.619Z,101842.20
2022-10-18T21:06:43.485Z,101841.00
2022-10-18T21:09:19.331Z,101833.00
2022-10-18T21:11:53.842Z,101833.20
2022-10-18T21:14:24.828Z,101832.00
2022-10-18T21:16:52.920Z,101840.80
2022-10-18T21:19:27.290Z,101844.40
2022-10-18T21:21:57.859Z,101838.80
2022-10-18T21:24:27.680Z,101842.00
2022-10-18T21:26:56.292Z,101835.80
2022-10-18T21:29:27.268Z,101825.40
2022-10-18T21:31:59.106Z,101825.20
2022-10-18T21:34:27.014Z,101820.60
2022-10-18T21:36:54.971Z,101821.20
2022-10-18T21:41:57.216Z,101817.80
2022-10-18T21:44:25.481Z,101823.20
2022-10-18T21:46:55.026Z,101821.40
2022-10-18T21:49:25.011Z,101812.60
2022-10-18T21:51:52.956Z,101808.80
2022-10-18T21:54:20.911Z,101814.80
2022-10-18T21:56:48.799Z,101827.00
2022-10-18T21:59:16.673Z,101826.40
2022-10-18T22:01:45.716Z,101827.00
2022-10-18T22:04:25.396Z,101824.40
2022-10-18T22:06:53.292Z,101825.60
2022-10-18T22:09:22.187Z,101818.60
2022-10-18T22:11:53.252Z,101818.00
2022-10-18T22:14:22.063Z,101805.20
2022-10-18T22:16:50.103Z,101796.60
2022-10-18T22:19:18.346Z,101791.80
2022-10-18T22:21:46.417Z,101785.60
2022-10-18T22:24:14.555Z,101778.20
2022-10-18T22:26:44.303Z,101775.20
2022-10-18T22:29:13.538Z,101779.80
2022-10-18T22:31:49.311Z,101779.80
2022-10-18T22:34:21.014Z,101773.20
2022-10-18T22:36:49.296Z,101766.80
2022-10-18T22:39:18.084Z,101768.20
2022-10-18T22:41:46.908Z,101759.00
2022-10-18T22:44:15.419Z,101752.60
2022-10-18T22:46:43.618Z,101754.00
2022-10-18T22:49:12.665Z,101756.00
2022-10-18T22:51:40.637Z,101753.40
2022-10-18T22:54:09.228Z,101752.60
2022-10-18T22:56:37.105Z,101747.80
2022-10-18T22:59:04.991Z,101741.80
2022-10-18T23:01:32.875Z,101738.60
2022-10-18T23:04:02.124Z,101740.80
2022-10-18T23:06:33.988Z,101740.60
2022-10-18T23:09:07.627Z,101746.40
2022-10-18T23:11:36.604Z,101746.60
2022-10-18T23:14:06.594Z,101744.20
2022-10-18T23:16:35.284Z,101742.00
2022-10-18T23:19:04.231Z,101737.80
2022-10-18T23:21:34.159Z,101739.60
2022-10-18T23:24:02.061Z,101747.00
2022-10-18T23:26:29.923Z,101751.00
2022-10-18T23:28:57.932Z,101752.60
2022-10-18T23:31:30.386Z,101754.80
2022-10-18T23:34:03.648Z,101761.20
2022-10-18T23:36:33.894Z,101765.20
2022-10-18T23:39:04.041Z,101771.20
2022-10-18T23:41:32.255Z,101766.60
2022-10-18T23:44:00.121Z,101763.60
2022-10-18T23:46:28.691Z,101760.20
2022-10-18T23:48:56.514Z,101772.60
2022-10-18T23:51:24.333Z,101770.00
2022-10-18T23:53:52.263Z,101767.20
2022-10-18T23:56:20.087Z,101766.20
2022-10-18T23:58:47.875Z,101762.00
